MDT,Max TemperatureF,Mean TemperatureF,Min TemperatureF,Max Dew PointF,MeanDew PointF,Min DewpointF,Max Humidity, Mean Humidity, Min Humidity, Max Sea Level PressureIn, Mean Sea Level PressureIn, Min Sea Level PressureIn, Max VisibilityMiles, Mean VisibilityMiles, Min VisibilityMiles, Max Wind SpeedMPH, Mean Wind SpeedMPH, Max Gust SpeedMPH,PrecipitationIn, CloudCover, Events, WindDirDegrees
2012-8-1,94,79,63,48,44,39,56,36,15,29.89,29.84,29.81,10,10,10,28,12,33,0.00,0,,12
2012-8-2,94,78,62,55,50,36,65,40,14,30.03,29.85,29.67,10,10,10,31,13,45,0.01,2,Rain-Thunderstorm,155
2012-8-3,71,59,47,52,46,42,80,63,45,30.09,29.91,29.70,10,10,9,29,12,35,0.00,4,,333
2012-8-4,78,61,44,43,38,31,86,53,20,30.18,30.13,30.09,10,10,10,23,10,32,0.00,0,,305
2012-8-5,96,74,51,40,35,27,54,32,9,30.16,30.04,29.93,10,10,10,16,9,24,0.00,0,,165
2012-8-6,98,75,51,46,35,27,59,34,8,30.01,29.97,29.92,10,10,10,23,5,30,0.00,0,,201
2012-8-7,94,76,58,45,34,15,43,25,6,30.19,30.00,29.94,10,10,10,30,11,40,0.00,0,,318
2012-8-8,94,74,53,45,35,30,45,29,12,30.11,30.05,30.00,10,10,10,18,7,26,0.00,0,,73
2012-8-9,94,81,68,48,45,39,47,31,15,30.05,29.99,29.93,10,10,10,23,12,29,0.00,0,,143
2012-8-10,93,78,62,60,47,42,48,34,20,30.13,29.92,29.81,10,10,3,26,12,36,0.17,2,Rain-Thunderstorm,88
2012-8-11,76,64,52,61,54,48,93,67,41,30.10,29.94,29.83,10,10,10,36,14,43,0.01,3,Rain,305
2012-8-12,82,69,55,52,47,44,83,57,30,30.23,30.08,30.04,10,10,10,18,9,21,0.01,1,Thunderstorm,10
2012-8-13,87,73,59,54,48,39,72,48,23,30.20,29.98,29.80,10,10,9,30,16,37,0.03,2,Rain-Thunderstorm,157
2012-8-14,92,72,51,47,40,30,77,45,13,29.98,29.77,29.67,10,10,10,16,6,24,0.00,0,,238
2012-8-15,72,60,47,51,44,30,77,53,28,30.21,29.98,29.65,10,10,10,28,16,33,0.00,5,,331
2012-8-16,72,60,47,45,42,39,86,61,36,30.22,30.15,30.07,10,10,10,14,6,18,0.00,5,,123
2012-8-17,83,65,47,45,39,31,71,44,17,30.13,30.01,29.94,10,10,10,22,10,29,0.00,0,,144
2012-8-18,79,63,46,34,31,29,53,35,16,30.17,30.08,30.04,10,10,10,21,7,26,0.00,0,,17
2012-8-19,84,66,47,34,31,27,54,34,13,30.11,30.02,29.91,10,10,10,16,7,21,0.00,0,,143
2012-8-20,89,73,57,34,31,27,36,24,12,29.94,29.89,29.83,10,10,10,20,8,26,0.00,0,,167
2012-8-21,91,70,48,35,30,26,40,25,10,29.95,29.87,29.78,10,10,10,17,7,22,0.00,0,,309
2012-8-22,88,73,58,43,38,36,44,30,16,29.93,29.79,29.71,10,10,10,24,10,30,0.00,1,,321
2012-8-23,92,78,64,46,42,36,43,29,14,29.88,29.75,29.62,10,10,10,26,12,32,0.00,0,,162
2012-8-24,93,77,60,44,33,18,48,29,10,29.86,29.66,29.57,10,10,9,30,14,38,0.00,0,,305
2012-8-25,85,63,40,34,30,26,64,39,13,30.01,29.90,29.81,10,10,10,23,9,30,0.00,0,,137
2012-8-26,87,65,42,41,34,28,65,39,12,30.12,29.97,29.88,10,10,8,20,5,24,0.00,0,,134
2012-8-27,98,79,60,45,38,32,48,30,11,30.08,29.93,29.88,10,10,10,22,10,28,0.00,0,,193
2012-8-28,98,78,58,43,38,34,51,31,11,30.12,29.90,29.81,10,10,10,18,5,24,0.00,0,,256
2012-8-29,100,85,69,44,35,28,31,20,9,29.90,29.72,29.60,10,10,10,36,14,56,0.00,0,,240
2012-8-30,91,72,52,39,35,29,45,29,12,30.00,29.88,29.76,10,10,10,28,10,31,0.00,0,,127
2012-8-31,94,79,64,54,44,36,48,33,18,30.03,29.84,29.73,10,9,4,36,18,45,T,2,Rain,168